Hastings, West Virginia
Current Conditions -  °F | °C
As of 8:53 AM on Wednesday 22 Oct 2014 (Local Time) from KCKB Reporting Station
Overcast Overcast  
Wind Chill: 43°   Ceiling: 1600
Heat Index: 47°   Visibility: 7mi
Dew Point: 45°   Wind: 8mph
Humidity: 93%   Direction: 350°N
Pressure: 30.12"   Gusts: NA
Location:  39.5697°N, 80.6462°W
Report Text: KCKB 221253Z 35007KT 7SM SCT009 BKN016 OVC022 08/07 A3012 RMK AO2 SLP197 T00830072
Loading
Personal Weather Stations






























Interactive Weather Map
Tropical Storm Tracking
New forecast layout! Learn more

10-Day Weather Forecast

Advertisements
Track Severe Weather on mobile